Wuustwezel, Belgium
Current Conditions -  °F | °C
As of 4:55 AM on Sunday 26 Oct 2014 (Local Time) from EHWO Reporting Station
Overcast Overcast  
Wind Chill: 12°   Ceiling: 3700
Heat Index: 12°   Visibility: 6mi
Dew Point: 10°   Wind: 7mph
Humidity: 88%   Direction: 210°SSW
Pressure: 30.18"   Gusts: NA
Location:  51.39°N, 4.6°E
Report Text: EHWO 260255Z AUTO 21006KT 9999 OVC037 12/10 Q1022 BLU
Loading
Personal Weather Stations






























Interactive Weather Map
Tropical Storm Tracking
New forecast layout! Learn more

10-Day Weather Forecast

Advertisements
Track Severe Weather on mobile